sensor_id;sensor_type;location;lat;lon;timestamp;temperature;humidity
39875;DHT22;25547;52.530;13.194;2023-04-24T00:00:45;12.90;99.90
39875;DHT22;25547;52.530;13.194;2023-04-24T00:03:13;12.80;99.90
39875;DHT22;25547;52.530;13.194;2023-04-24T00:05:41;12.80;99.90
39875;DHT22;25547;52.530;13.194;2023-04-24T00:08:07;12.80;99.90
39875;DHT22;25547;52.530;13.194;2023-04-24T00:10:35;12.80;99.90
39875;DHT22;25547;52.530;13.194;2023-04-24T00:13:00;12.80;99.90
39875;DHT22;25547;52.530;13.194;2023-04-24T00:15:26;12.70;99.90
39875;DHT22;25547;52.530;13.194;2023-04-24T00:17:51;12.70;99.90
39875;DHT22;25547;52.530;13.194;2023-04-24T00:20:18;12.60;99.90
39875;DHT22;25547;52.530;13.194;2023-04-24T00:22:44;12.60;99.90
39875;DHT22;25547;52.530;13.194;2023-04-24T00:25:12;12.60;99.90
39875;DHT22;25547;52.530;13.194;2023-04-24T00:27:40;12.50;99.90
39875;DHT22;25547;52.530;13.194;2023-04-24T00:30:06;12.50;99.90
39875;DHT22;25547;52.530;13.194;2023-04-24T00:32:32;12.50;99.90
39875;DHT22;25547;52.530;13.194;2023-04-24T00:35:00;12.50;99.90
39875;DHT22;25547;52.530;13.194;2023-04-24T00:37:26;12.50;99.90
39875;DHT22;25547;52.530;13.194;2023-04-24T00:39:51;12.50;99.90
39875;DHT22;25547;52.530;13.194;2023-04-24T00:42:17;12.40;99.90
39875;DHT22;25547;52.530;13.194;2023-04-24T00:44:43;12.40;99.90
39875;DHT22;25547;52.530;13.194;2023-04-24T00:47:08;12.30;99.90
39875;DHT22;25547;52.530;13.194;2023-04-24T00:49:34;12.40;99.90
39875;DHT22;25547;52.530;13.194;2023-04-24T00:52:00;12.40;99.90
39875;DHT22;25547;52.530;13.194;2023-04-24T00:54:28;12.50;99.90
39875;DHT22;25547;52.530;13.194;2023-04-24T00:56:54;12.50;99.90
39875;DHT22;25547;52.530;13.194;2023-04-24T00:59:22;12.50;99.90
39875;DHT22;25547;52.530;13.194;2023-04-24T01:01:47;12.50;99.90
39875;DHT22;25547;52.530;13.194;2023-04-24T01:04:14;12.60;99.90
39875;DHT22;25547;52.530;13.194;2023-04-24T01:06:43;12.60;99.90
39875;DHT22;25547;52.530;13.194;2023-04-24T01:09:13;12.60;99.90
39875;DHT22;25547;52.530;13.194;2023-04-24T01:11:41;12.70;99.90
39875;DHT22;25547;52.530;13.194;2023-04-24T01:14:08;12.80;99.90
39875;DHT22;25547;52.530;13.194;2023-04-24T01:16:34;12.80;99.90
39875;DHT22;25547;52.530;13.194;2023-04-24T01:18:59;12.80;99.90
39875;DHT22;25547;52.530;13.194;2023-04-24T01:21:30;12.70;99.90
39875;DHT22;25547;52.530;13.194;2023-04-24T01:23:56;12.60;99.90
39875;DHT22;25547;52.530;13.194;2023-04-24T01:26:22;12.50;99.90
39875;DHT22;25547;52.530;13.194;2023-04-24T01:28:51;12.40;99.90
39875;DHT22;25547;52.530;13.194;2023-04-24T01:31:17;12.40;99.90
39875;DHT22;25547;52.530;13.194;2023-04-24T01:33:45;12.50;99.90
39875;DHT22;25547;52.530;13.194;2023-04-24T01:36:11;12.40;99.90
39875;DHT22;25547;52.530;13.194;2023-04-24T01:38:37;12.40;99.90
39875;DHT22;25547;52.530;13.194;2023-04-24T01:41:03;12.50;99.90
39875;DHT22;25547;52.530;13.194;2023-04-24T01:43:29;12.60;99.90
39875;DHT22;25547;52.530;13.194;2023-04-24T01:45:55;12.70;99.90
39875;DHT22;25547;52.530;13.194;2023-04-24T01:48:20;12.70;99.90
39875;DHT22;25547;52.530;13.194;2023-04-24T01:50:46;12.70;99.90
39875;DHT22;25547;52.530;13.194;2023-04-24T01:53:12;12.60;99.90
39875;DHT22;25547;52.530;13.194;2023-04-24T01:55:38;12.60;99.90
39875;DHT22;25547;52.530;13.194;2023-04-24T01:58:03;12.60;99.90
39875;DHT22;25547;52.530;13.194;2023-04-24T02:00:29;12.60;99.90
39875;DHT22;25547;52.530;13.194;2023-04-24T02:02:55;12.60;99.90
39875;DHT22;25547;52.530;13.194;2023-04-24T02:05:21;12.60;99.90
39875;DHT22;25547;52.530;13.194;2023-04-24T02:07:46;12.60;99.90
39875;DHT22;25547;52.530;13.194;2023-04-24T02:10:14;12.60;99.90
39875;DHT22;25547;52.530;13.194;2023-04-24T02:12:40;12.60;99.90
39875;DHT22;25547;52.530;13.194;2023-04-24T02:15:08;12.60;99.90
39875;DHT22;25547;52.530;13.194;2023-04-24T02:17:34;12.60;99.90
39875;DHT22;25547;52.530;13.194;2023-04-24T02:20:00;12.60;99.90
39875;DHT22;25547;52.530;13.194;2023-04-24T02:22:26;12.60;99.90
39875;DHT22;25547;52.530;13.194;2023-04-24T02:24:51;12.50;99.90
39875;DHT22;25547;52.530;13.194;2023-04-24T02:27:19;12.50;99.90
39875;DHT22;25547;52.530;13.194;2023-04-24T02:29:45;12.50;99.90
39875;DHT22;25547;52.530;13.194;2023-04-24T02:32:10;12.50;99.90
39875;DHT22;25547;52.530;13.194;2023-04-24T02:34:43;12.50;99.90
39875;DHT22;25547;52.530;13.194;2023-04-24T02:37:11;12.40;99.90
39875;DHT22;25547;52.530;13.194;2023-04-24T02:39:36;12.40;99.90
39875;DHT22;25547;52.530;13.194;2023-04-24T02:42:04;12.40;99.90
39875;DHT22;25547;52.530;13.194;2023-04-24T02:44:30;12.50;99.90
39875;DHT22;25547;52.530;13.194;2023-04-24T02:46:58;12.50;99.90
39875;DHT22;25547;52.530;13.194;2023-04-24T02:49:24;12.50;99.90
39875;DHT22;25547;52.530;13.194;2023-04-24T02:51:52;12.50;99.90
39875;DHT22;25547;52.530;13.194;2023-04-24T02:54:17;12.50;99.90
39875;DHT22;25547;52.530;13.194;2023-04-24T02:56:43;12.40;99.90
39875;DHT22;25547;52.530;13.194;2023-04-24T02:59:09;12.40;99.90
39875;DHT22;25547;52.530;13.194;2023-04-24T03:01:35;12.40;99.90
39875;DHT22;25547;52.530;13.194;2023-04-24T03:04:01;12.40;99.90
39875;DHT22;25547;52.530;13.194;2023-04-24T03:06:29;12.40;99.90
39875;DHT22;25547;52.530;13.194;2023-04-24T03:08:58;12.40;99.90
39875;DHT22;25547;52.530;13.194;2023-04-24T03:11:23;12.40;99.90
39875;DHT22;25547;52.530;13.194;2023-04-24T03:13:49;12.40;99.90
39875;DHT22;25547;52.530;13.194;2023-04-24T03:16:15;12.30;99.90
39875;DHT22;25547;52.530;13.194;2023-04-24T03:18:40;12.30;99.90
39875;DHT22;25547;52.530;13.194;2023-04-24T03:21:06;12.40;99.90
39875;DHT22;25547;52.530;13.194;2023-04-24T03:23:34;12.30;99.90
39875;DHT22;25547;52.530;13.194;2023-04-24T03:25:59;12.40;99.90
39875;DHT22;25547;52.530;13.194;2023-04-24T03:28:25;12.40;99.90
39875;DHT22;25547;52.530;13.194;2023-04-24T03:30:53;12.40;99.90
39875;DHT22;25547;52.530;13.194;2023-04-24T03:33:19;12.40;99.90
39875;DHT22;25547;52.530;13.194;2023-04-24T03:35:45;12.40;99.90
39875;DHT22;25547;52.530;13.194;2023-04-24T03:38:10;12.40;99.90
39875;DHT22;25547;52.530;13.194;2023-04-24T03:40:38;12.40;99.90
39875;DHT22;25547;52.530;13.194;2023-04-24T03:43:04;12.30;99.90
39875;DHT22;25547;52.530;13.194;2023-04-24T03:45:32;12.30;99.90
39875;DHT22;25547;52.530;13.194;2023-04-24T03:48:02;12.30;99.90
39875;DHT22;25547;52.530;13.194;2023-04-24T03:50:28;12.40;99.90
39875;DHT22;25547;52.530;13.194;2023-04-24T03:52:58;12.40;99.90
39875;DHT22;25547;52.530;13.194;2023-04-24T03:55:24;12.50;99.90
39875;DHT22;25547;52.530;13.194;2023-04-24T03:57:49;12.60;99.90
39875;DHT22;25547;52.530;13.194;2023-04-24T04:00:17;12.50;99.90
39875;DHT22;25547;52.530;13.194;2023-04-24T04:02:46;12.50;99.90
39875;DHT22;25547;52.530;13.194;2023-04-24T04:05:12;12.50;99.90
39875;DHT22;25547;52.530;13.194;2023-04-24T04:07:37;12.60;99.90
39875;DHT22;25547;52.530;13.194;2023-04-24T04:10:03;12.60;99.90
39875;DHT22;25547;52.530;13.194;2023-04-24T04:12:29;12.60;99.90
39875;DHT22;25547;52.530;13.194;2023-04-24T04:14:57;12.50;99.90
39875;DHT22;25547;52.530;13.194;2023-04-24T04:17:23;12.50;99.90
39875;DHT22;25547;52.530;13.194;2023-04-24T04:19:51;12.60;99.90
39875;DHT22;25547;52.530;13.194;2023-04-24T04:22:19;12.50;99.90
39875;DHT22;25547;52.530;13.194;2023-04-24T04:24:45;12.60;99.90
39875;DHT22;25547;52.530;13.194;2023-04-24T04:27:15;12.50;99.90
39875;DHT22;25547;52.530;13.194;2023-04-24T04:29:44;12.50;99.90
39875;DHT22;25547;52.530;13.194;2023-04-24T04:32:10;12.40;99.90
39875;DHT22;25547;52.530;13.194;2023-04-24T04:34:37;12.50;99.90
39875;DHT22;25547;52.530;13.194;2023-04-24T04:37:05;12.40;99.90
39875;DHT22;25547;52.530;13.194;2023-04-24T04:39:31;12.40;99.90
39875;DHT22;25547;52.530;13.194;2023-04-24T04:41:57;12.40;99.90
39875;DHT22;25547;52.530;13.194;2023-04-24T04:44:26;12.40;99.90
39875;DHT22;25547;52.530;13.194;2023-04-24T04:46:54;12.40;99.90
39875;DHT22;25547;52.530;13.194;2023-04-24T04:49:21;12.40;99.90
39875;DHT22;25547;52.530;13.194;2023-04-24T04:51:49;12.50;99.90
39875;DHT22;25547;52.530;13.194;2023-04-24T04:54:18;12.60;99.90
39875;DHT22;25547;52.530;13.194;2023-04-24T04:56:46;12.60;99.90
39875;DHT22;25547;52.530;13.194;2023-04-24T04:59:12;12.70;99.90
39875;DHT22;25547;52.530;13.194;2023-04-24T05:01:38;12.70;99.90
39875;DHT22;25547;52.530;13.194;2023-04-24T05:04:04;12.70;99.90
39875;DHT22;25547;52.530;13.194;2023-04-24T05:06:30;12.70;99.90
39875;DHT22;25547;52.530;13.194;2023-04-24T05:08:56;12.70;99.90
39875;DHT22;25547;52.530;13.194;2023-04-24T05:11:22;12.70;99.90
39875;DHT22;25547;52.530;13.194;2023-04-24T05:13:48;12.80;99.90
39875;DHT22;25547;52.530;13.194;2023-04-24T05:16:16;12.80;99.90
39875;DHT22;25547;52.530;13.194;2023-04-24T05:18:42;12.90;99.90
39875;DHT22;25547;52.530;13.194;2023-04-24T05:21:10;13.00;99.90
39875;DHT22;25547;52.530;13.194;2023-04-24T05:23:35;13.00;99.90
39875;DHT22;25547;52.530;13.194;2023-04-24T05:26:03;13.00;99.90
39875;DHT22;25547;52.530;13.194;2023-04-24T05:28:34;13.00;99.90
39875;DHT22;25547;52.530;13.194;2023-04-24T05:31:02;13.00;99.90
39875;DHT22;25547;52.530;13.194;2023-04-24T05:33:28;13.00;99.90
39875;DHT22;25547;52.530;13.194;2023-04-24T05:35:54;13.10;99.90
39875;DHT22;25547;52.530;13.194;2023-04-24T05:38:19;13.10;99.90
39875;DHT22;25547;52.530;13.194;2023-04-24T05:40:45;13.10;99.90
39875;DHT22;25547;52.530;13.194;2023-04-24T05:43:12;13.20;99.90
39875;DHT22;25547;52.530;13.194;2023-04-24T05:45:40;13.20;99.90
39875;DHT22;25547;52.530;13.194;2023-04-24T05:48:08;13.20;99.90
39875;DHT22;25547;52.530;13.194;2023-04-24T05:50:35;13.20;99.90
39875;DHT22;25547;52.530;13.194;2023-04-24T05:53:01;13.20;99.90
39875;DHT22;25547;52.530;13.194;2023-04-24T05:55:27;13.20;99.90
39875;DHT22;25547;52.530;13.194;2023-04-24T05:57:53;13.20;99.90
39875;DHT22;25547;52.530;13.194;2023-04-24T06:00:19;13.30;99.90
39875;DHT22;25547;52.530;13.194;2023-04-24T06:02:46;13.40;99.90
39875;DHT22;25547;52.530;13.194;2023-04-24T06:05:12;13.40;99.90
39875;DHT22;25547;52.530;13.194;2023-04-24T06:07:40;13.50;99.90
39875;DHT22;25547;52.530;13.194;2023-04-24T06:10:06;13.40;99.90
39875;DHT22;25547;52.530;13.194;2023-04-24T06:12:32;13.40;99.90
39875;DHT22;25547;52.530;13.194;2023-04-24T06:14:57;13.40;99.90
39875;DHT22;25547;52.530;13.194;2023-04-24T06:17:25;13.50;99.90
39875;DHT22;25547;52.530;13.194;2023-04-24T06:19:51;13.50;99.90
39875;DHT22;25547;52.530;13.194;2023-04-24T06:22:17;13.70;99.90
39875;DHT22;25547;52.530;13.194;2023-04-24T06:24:42;14.00;99.90
39875;DHT22;25547;52.530;13.194;2023-04-24T06:27:08;14.20;99.90
39875;DHT22;25547;52.530;13.194;2023-04-24T06:29:36;14.40;99.90
39875;DHT22;25547;52.530;13.194;2023-04-24T06:32:02;14.60;99.90
39875;DHT22;25547;52.530;13.194;2023-04-24T06:34:28;14.70;99.90
39875;DHT22;25547;52.530;13.194;2023-04-24T06:36:54;14.80;99.90
39875;DHT22;25547;52.530;13.194;2023-04-24T06:39:20;14.90;99.90
39875;DHT22;25547;52.530;13.194;2023-04-24T06:41:46;15.10;99.90
39875;DHT22;25547;52.530;13.194;2023-04-24T06:44:11;15.20;99.90
39875;DHT22;25547;52.530;13.194;2023-04-24T06:46:40;15.20;99.90
39875;DHT22;25547;52.530;13.194;2023-04-24T06:49:06;15.00;99.90
39875;DHT22;25547;52.530;13.194;2023-04-24T06:51:32;15.20;99.90
39875;DHT22;25547;52.530;13.194;2023-04-24T06:54:00;16.20;99.90
39875;DHT22;25547;52.530;13.194;2023-04-24T06:56:26;16.40;99.90
39875;DHT22;25547;52.530;13.194;2023-04-24T06:58:56;16.50;99.90
39875;DHT22;25547;52.530;13.194;2023-04-24T07:01:24;16.30;99.90
39875;DHT22;25547;52.530;13.194;2023-04-24T07:03:52;16.40;99.90
39875;DHT22;25547;52.530;13.194;2023-04-24T07:06:20;17.00;99.90
39875;DHT22;25547;52.530;13.194;2023-04-24T07:08:48;17.40;99.90
39875;DHT22;25547;52.530;13.194;2023-04-24T07:11:16;18.60;98.70
39875;DHT22;25547;52.530;13.194;2023-04-24T07:13:46;19.30;95.80
39875;DHT22;25547;52.530;13.194;2023-04-24T07:16:14;20.20;91.90
39875;DHT22;25547;52.530;13.194;2023-04-24T07:18:42;21.60;88.10
39875;DHT22;25547;52.530;13.194;2023-04-24T07:21:10;23.20;77.90
39875;DHT22;25547;52.530;13.194;2023-04-24T07:23:36;21.70;77.20
39875;DHT22;25547;52.530;13.194;2023-04-24T07:26:04;20.60;80.90
39875;DHT22;25547;52.530;13.194;2023-04-24T07:28:30;22.60;79.40
39875;DHT22;25547;52.530;13.194;2023-04-24T07:30:58;22.40;74.70
39875;DHT22;25547;52.530;13.194;2023-04-24T07:33:25;21.70;78.40
39875;DHT22;25547;52.530;13.194;2023-04-24T07:35:51;20.60;79.50
39875;DHT22;25547;52.530;13.194;2023-04-24T07:38:20;19.10;83.00
39875;DHT22;25547;52.530;13.194;2023-04-24T07:40:51;18.30;86.60
39875;DHT22;25547;52.530;13.194;2023-04-24T07:43:16;17.50;89.70
39875;DHT22;25547;52.530;13.194;2023-04-24T07:45:42;16.90;91.80
39875;DHT22;25547;52.530;13.194;2023-04-24T07:48:08;17.30;91.60
39875;DHT22;25547;52.530;13.194;2023-04-24T07:50:36;18.30;90.50
39875;DHT22;25547;52.530;13.194;2023-04-24T07:53:02;22.10;76.70
39875;DHT22;25547;52.530;13.194;2023-04-24T07:55:28;23.60;69.40
39875;DHT22;25547;52.530;13.194;2023-04-24T07:57:53;25.00;64.60
39875;DHT22;25547;52.530;13.194;2023-04-24T08:00:23;24.60;61.90
39875;DHT22;25547;52.530;13.194;2023-04-24T08:02:49;24.20;60.50
39875;DHT22;25547;52.530;13.194;2023-04-24T08:05:17;24.00;61.50
39875;DHT22;25547;52.530;13.194;2023-04-24T08:07:43;25.20;60.30
39875;DHT22;25547;52.530;13.194;2023-04-24T08:10:14;24.20;60.40
39875;DHT22;25547;52.530;13.194;2023-04-24T08:12:42;25.30;60.60
39875;DHT22;25547;52.530;13.194;2023-04-24T08:15:08;26.90;54.10
39875;DHT22;25547;52.530;13.194;2023-04-24T08:17:36;25.40;53.40
39875;DHT22;25547;52.530;13.194;2023-04-24T08:20:05;23.60;57.00
39875;DHT22;25547;52.530;13.194;2023-04-24T08:22:37;23.40;61.40
39875;DHT22;25547;52.530;13.194;2023-04-24T08:25:03;26.70;54.40
39875;DHT22;25547;52.530;13.194;2023-04-24T08:27:29;24.90;54.30
39875;DHT22;25547;52.530;13.194;2023-04-24T08:29:55;22.00;59.20
39875;DHT22;25547;52.530;13.194;2023-04-24T08:32:22;20.40;64.90
39875;DHT22;25547;52.530;13.194;2023-04-24T08:34:53;19.40;70.80
39875;DHT22;25547;52.530;13.194;2023-04-24T08:37:19;18.80;73.50
39875;DHT22;25547;52.530;13.194;2023-04-24T08:39:44;18.60;73.00
39875;DHT22;25547;52.530;13.194;2023-04-24T08:42:16;18.60;74.10
39875;DHT22;25547;52.530;13.194;2023-04-24T08:44:43;18.70;74.00
39875;DHT22;25547;52.530;13.194;2023-04-24T08:47:11;19.00;73.30
39875;DHT22;25547;52.530;13.194;2023-04-24T08:49:39;18.90;74.50
39875;DHT22;25547;52.530;13.194;2023-04-24T08:52:05;19.10;74.20
39875;DHT22;25547;52.530;13.194;2023-04-24T08:54:32;18.80;75.50
39875;DHT22;25547;52.530;13.194;2023-04-24T08:57:00;19.00;75.00
39875;DHT22;25547;52.530;13.194;2023-04-24T08:59:30;18.50;76.50
39875;DHT22;25547;52.530;13.194;2023-04-24T09:01:56;18.40;77.90
39875;DHT22;25547;52.530;13.194;2023-04-24T09:04:24;18.40;79.10
39875;DHT22;25547;52.530;13.194;2023-04-24T09:06:51;18.10;77.90
39875;DHT22;25547;52.530;13.194;2023-04-24T09:09:20;17.80;81.30
39875;DHT22;25547;52.530;13.194;2023-04-24T09:11:49;17.70;81.50
39875;DHT22;25547;52.530;13.194;2023-04-24T09:14:15;17.50;82.10
39875;DHT22;25547;52.530;13.194;2023-04-24T09:16:44;17.30;83.70
39875;DHT22;25547;52.530;13.194;2023-04-24T09:19:10;17.50;83.70
39875;DHT22;25547;52.530;13.194;2023-04-24T09:21:36;17.70;84.00
39875;DHT22;25547;52.530;13.194;2023-04-24T09:24:06;17.80;82.70
39875;DHT22;25547;52.530;13.194;2023-04-24T09:26:37;17.70;83.50
39875;DHT22;25547;52.530;13.194;2023-04-24T09:29:06;17.50;83.30
39875;DHT22;25547;52.530;13.194;2023-04-24T09:31:31;17.40;84.30
39875;DHT22;25547;52.530;13.194;2023-04-24T09:34:02;17.20;85.20
39875;DHT22;25547;52.530;13.194;2023-04-24T09:36:35;17.20;86.20
39875;DHT22;25547;52.530;13.194;2023-04-24T09:39:14;16.90;85.60
39875;DHT22;25547;52.530;13.194;2023-04-24T09:44:22;16.70;87.00
39875;DHT22;25547;52.530;13.194;2023-04-24T09:49:29;17.20;86.40
39875;DHT22;25547;52.530;13.194;2023-04-24T09:52:07;17.00;85.80
39875;DHT22;25547;52.530;13.194;2023-04-24T09:54:33;16.90;87.80
39875;DHT22;25547;52.530;13.194;2023-04-24T09:56:58;16.90;88.30
39875;DHT22;25547;52.530;13.194;2023-04-24T09:59:26;16.90;88.50
39875;DHT22;25547;52.530;13.194;2023-04-24T10:01:51;17.00;88.80
39875;DHT22;25547;52.530;13.194;2023-04-24T10:06:47;17.30;86.50
39875;DHT22;25547;52.530;13.194;2023-04-24T10:09:15;17.40;87.20
39875;DHT22;25547;52.530;13.194;2023-04-24T10:11:45;17.30;86.50
39875;DHT22;25547;52.530;13.194;2023-04-24T10:14:17;17.00;87.50
39875;DHT22;25547;52.530;13.194;2023-04-24T10:16:44;16.90;86.80
39875;DHT22;25547;52.530;13.194;2023-04-24T10:19:10;17.00;87.10
39875;DHT22;25547;52.530;13.194;2023-04-24T10:21:40;17.10;85.30
39875;DHT22;25547;52.530;13.194;2023-04-24T10:24:10;17.20;85.20
39875;DHT22;25547;52.530;13.194;2023-04-24T10:26:37;16.90;85.80
39875;DHT22;25547;52.530;13.194;2023-04-24T10:29:06;16.70;86.90
39875;DHT22;25547;52.530;13.194;2023-04-24T10:31:36;16.30;87.00
39875;DHT22;25547;52.530;13.194;2023-04-24T10:34:04;16.20;89.20
39875;DHT22;25547;52.530;13.194;2023-04-24T10:36:34;16.00;88.30
39875;DHT22;25547;52.530;13.194;2023-04-24T10:39:02;15.90;88.10
39875;DHT22;25547;52.530;13.194;2023-04-24T10:41:36;15.90;88.80
39875;DHT22;25547;52.530;13.194;2023-04-24T10:44:13;16.00;88.90
39875;DHT22;25547;52.530;13.194;2023-04-24T10:46:45;16.10;88.90
39875;DHT22;25547;52.530;13.194;2023-04-24T10:49:12;16.30;90.00
39875;DHT22;25547;52.530;13.194;2023-04-24T10:51:49;16.60;89.30
39875;DHT22;25547;52.530;13.194;2023-04-24T10:54:46;16.90;87.50
39875;DHT22;25547;52.530;13.194;2023-04-24T10:59:43;17.20;84.80
39875;DHT22;25547;52.530;13.194;2023-04-24T11:02:14;17.30;84.80
39875;DHT22;25547;52.530;13.194;2023-04-24T11:04:40;17.20;85.70
39875;DHT22;25547;52.530;13.194;2023-04-24T11:07:09;16.90;87.10
39875;DHT22;25547;52.530;13.194;2023-04-24T11:09:35;16.80;88.70
39875;DHT22;25547;52.530;13.194;2023-04-24T11:12:05;16.70;91.10
39875;DHT22;25547;52.530;13.194;2023-04-24T11:17:36;16.30;90.30
39875;DHT22;25547;52.530;13.194;2023-04-24T11:20:10;16.90;90.10
39875;DHT22;25547;52.530;13.194;2023-04-24T11:22:40;16.90;89.40
39875;DHT22;25547;52.530;13.194;2023-04-24T11:25:06;17.00;88.70
39875;DHT22;25547;52.530;13.194;2023-04-24T11:27:39;17.40;89.50
39875;DHT22;25547;52.530;13.194;2023-04-24T11:30:06;17.50;87.00
39875;DHT22;25547;52.530;13.194;2023-04-24T11:35:06;17.70;86.50
39875;DHT22;25547;52.530;13.194;2023-04-24T11:37:49;17.60;86.70
39875;DHT22;25547;52.530;13.194;2023-04-24T11:40:16;17.70;87.00
39875;DHT22;25547;52.530;13.194;2023-04-24T11:42:44;17.80;87.60
39875;DHT22;25547;52.530;13.194;2023-04-24T11:45:14;17.50;86.30
39875;DHT22;25547;52.530;13.194;2023-04-24T11:47:41;17.40;86.00
39875;DHT22;25547;52.530;13.194;2023-04-24T11:50:09;17.40;86.80
39875;DHT22;25547;52.530;13.194;2023-04-24T11:52:45;17.60;86.50
39875;DHT22;25547;52.530;13.194;2023-04-24T11:57:44;17.60;85.90
39875;DHT22;25547;52.530;13.194;2023-04-24T12:00:16;17.40;86.20
39875;DHT22;25547;52.530;13.194;2023-04-24T12:02:42;17.30;85.80
39875;DHT22;25547;52.530;13.194;2023-04-24T12:05:08;17.30;86.30
39875;DHT22;25547;52.530;13.194;2023-04-24T12:07:41;17.40;85.70
39875;DHT22;25547;52.530;13.194;2023-04-24T12:10:10;17.40;85.30
39875;DHT22;25547;52.530;13.194;2023-04-24T12:12:36;17.40;87.50
39875;DHT22;25547;52.530;13.194;2023-04-24T12:15:07;17.60;86.70
39875;DHT22;25547;52.530;13.194;2023-04-24T12:17:36;17.60;85.80
39875;DHT22;25547;52.530;13.194;2023-04-24T12:20:07;17.60;82.30
39875;DHT22;25547;52.530;13.194;2023-04-24T12:22:54;17.60;84.10
39875;DHT22;25547;52.530;13.194;2023-04-24T12:25:30;17.60;76.90
39875;DHT22;25547;52.530;13.194;2023-04-24T12:30:29;17.40;75.40
39875;DHT22;25547;52.530;13.194;2023-04-24T12:32:57;17.20;75.50
39875;DHT22;25547;52.530;13.194;2023-04-24T12:35:24;16.80;78.30
39875;DHT22;25547;52.530;13.194;2023-04-24T12:37:51;16.60;80.60
39875;DHT22;25547;52.530;13.194;2023-04-24T12:40:20;16.50;79.90
39875;DHT22;25547;52.530;13.194;2023-04-24T12:42:51;16.40;80.70
39875;DHT22;25547;52.530;13.194;2023-04-24T12:45:19;16.70;81.10
39875;DHT22;25547;52.530;13.194;2023-04-24T12:47:46;17.00;81.50
39875;DHT22;25547;52.530;13.194;2023-04-24T12:50:15;17.20;80.30
39875;DHT22;25547;52.530;13.194;2023-04-24T12:52:41;17.20;81.80
39875;DHT22;25547;52.530;13.194;2023-04-24T12:55:07;17.20;81.20
39875;DHT22;25547;52.530;13.194;2023-04-24T12:57:35;17.20;81.20
39875;DHT22;25547;52.530;13.194;2023-04-24T13:00:05;17.00;81.40
39875;DHT22;25547;52.530;13.194;2023-04-24T13:02:31;16.90;81.70
39875;DHT22;25547;52.530;13.194;2023-04-24T13:04:57;17.00;84.00
39875;DHT22;25547;52.530;13.194;2023-04-24T13:07:24;17.10;83.50
39875;DHT22;25547;52.530;13.194;2023-04-24T13:09:51;17.10;83.00
39875;DHT22;25547;52.530;13.194;2023-04-24T13:12:21;17.00;82.10
39875;DHT22;25547;52.530;13.194;2023-04-24T13:14:49;17.20;83.80
39875;DHT22;25547;52.530;13.194;2023-04-24T13:17:14;17.30;84.70
39875;DHT22;25547;52.530;13.194;2023-04-24T13:19:44;17.40;85.60
39875;DHT22;25547;52.530;13.194;2023-04-24T13:22:13;17.30;85.30
39875;DHT22;25547;52.530;13.194;2023-04-24T13:24:40;17.40;86.90
39875;DHT22;25547;52.530;13.194;2023-04-24T13:27:11;17.40;84.40
39875;DHT22;25547;52.530;13.194;2023-04-24T13:29:39;17.40;83.10
39875;DHT22;25547;52.530;13.194;2023-04-24T13:32:04;17.50;78.60
39875;DHT22;25547;52.530;13.194;2023-04-24T13:34:30;17.60;78.60
39875;DHT22;25547;52.530;13.194;2023-04-24T13:36:59;17.60;79.50
39875;DHT22;25547;52.530;13.194;2023-04-24T13:39:29;17.60;78.10
39875;DHT22;25547;52.530;13.194;2023-04-24T13:41:57;17.50;78.70
39875;DHT22;25547;52.530;13.194;2023-04-24T13:44:26;17.40;78.30
39875;DHT22;25547;52.530;13.194;2023-04-24T13:46:54;17.30;78.70
39875;DHT22;25547;52.530;13.194;2023-04-24T13:49:24;17.30;78.60
39875;DHT22;25547;52.530;13.194;2023-04-24T13:54:39;17.30;76.80
39875;DHT22;25547;52.530;13.194;2023-04-24T13:57:07;17.30;77.80
39875;DHT22;25547;52.530;13.194;2023-04-24T13:59:35;17.40;74.60
39875;DHT22;25547;52.530;13.194;2023-04-24T14:02:05;17.50;75.30
39875;DHT22;25547;52.530;13.194;2023-04-24T14:04:33;17.70;73.90
39875;DHT22;25547;52.530;13.194;2023-04-24T14:06:58;17.80;71.20
39875;DHT22;25547;52.530;13.194;2023-04-24T14:09:24;17.80;65.00
39875;DHT22;25547;52.530;13.194;2023-04-24T14:11:52;17.70;65.60
39875;DHT22;25547;52.530;13.194;2023-04-24T14:14:21;17.70;66.40
39875;DHT22;25547;52.530;13.194;2023-04-24T14:16:49;17.80;65.70
39875;DHT22;25547;52.530;13.194;2023-04-24T14:19:15;17.70;64.70
39875;DHT22;25547;52.530;13.194;2023-04-24T14:21:40;17.50;63.50
39875;DHT22;25547;52.530;13.194;2023-04-24T14:24:06;17.30;64.20
39875;DHT22;25547;52.530;13.194;2023-04-24T14:26:32;17.30;65.30
39875;DHT22;25547;52.530;13.194;2023-04-24T14:28:57;17.50;65.50
39875;DHT22;25547;52.530;13.194;2023-04-24T14:31:24;17.40;63.30
39875;DHT22;25547;52.530;13.194;2023-04-24T14:33:52;17.40;65.20
39875;DHT22;25547;52.530;13.194;2023-04-24T14:36:17;17.50;64.60
39875;DHT22;25547;52.530;13.194;2023-04-24T14:38:43;17.50;63.70
39875;DHT22;25547;52.530;13.194;2023-04-24T14:41:09;17.70;63.70
39875;DHT22;25547;52.530;13.194;2023-04-24T14:43:37;17.60;63.20
39875;DHT22;25547;52.530;13.194;2023-04-24T14:46:03;17.30;63.00
39875;DHT22;25547;52.530;13.194;2023-04-24T14:48:29;17.20;62.70
39875;DHT22;25547;52.530;13.194;2023-04-24T14:50:54;17.20;62.30
39875;DHT22;25547;52.530;13.194;2023-04-24T14:53:20;17.20;63.10
39875;DHT22;25547;52.530;13.194;2023-04-24T14:55:46;17.20;63.40
39875;DHT22;25547;52.530;13.194;2023-04-24T14:58:11;17.10;64.10
39875;DHT22;25547;52.530;13.194;2023-04-24T15:00:37;17.00;65.10
39875;DHT22;25547;52.530;13.194;2023-04-24T15:03:05;17.00;66.20
39875;DHT22;25547;52.530;13.194;2023-04-24T15:05:31;17.10;65.90
39875;DHT22;25547;52.530;13.194;2023-04-24T15:08:01;17.10;65.00
39875;DHT22;25547;52.530;13.194;2023-04-24T15:10:26;17.10;64.30
39875;DHT22;25547;52.530;13.194;2023-04-24T15:12:55;17.00;63.90
39875;DHT22;25547;52.530;13.194;2023-04-24T15:15:25;16.70;64.60
39875;DHT22;25547;52.530;13.194;2023-04-24T15:17:51;16.50;64.90
39875;DHT22;25547;52.530;13.194;2023-04-24T15:20:16;16.40;66.30
39875;DHT22;25547;52.530;13.194;2023-04-24T15:22:43;16.40;66.70
39875;DHT22;25547;52.530;13.194;2023-04-24T15:25:09;16.40;68.10
39875;DHT22;25547;52.530;13.194;2023-04-24T15:27:43;16.30;68.00
39875;DHT22;25547;52.530;13.194;2023-04-24T15:30:09;16.40;67.90
39875;DHT22;25547;52.530;13.194;2023-04-24T15:32:35;16.40;67.40
39875;DHT22;25547;52.530;13.194;2023-04-24T15:35:01;16.40;66.70
39875;DHT22;25547;52.530;13.194;2023-04-24T15:37:27;16.30;67.50
39875;DHT22;25547;52.530;13.194;2023-04-24T15:39:55;16.30;67.50